sensor_id;sensor_type;location;lat;lon;timestamp;P1;durP1;ratioP1;P2;durP2;ratioP2
38113;SDS011;23926;53.222;6.354;2022-08-21T00:00:43;12.60;;;7.28;;
38113;SDS011;23926;53.222;6.354;2022-08-21T00:03:10;12.13;;;8.27;;
38113;SDS011;23926;53.222;6.354;2022-08-21T00:05:37;11.80;;;7.50;;
38113;SDS011;23926;53.222;6.354;2022-08-21T00:08:05;10.93;;;7.38;;
38113;SDS011;23926;53.222;6.354;2022-08-21T00:10:31;12.07;;;7.65;;
38113;SDS011;23926;53.222;6.354;2022-08-21T00:12:57;15.02;;;7.63;;
38113;SDS011;23926;53.222;6.354;2022-08-21T00:15:24;13.25;;;7.75;;
38113;SDS011;23926;53.222;6.354;2022-08-21T00:17:51;13.27;;;8.25;;
38113;SDS011;23926;53.222;6.354;2022-08-21T00:20:18;10.73;;;7.63;;
38113;SDS011;23926;53.222;6.354;2022-08-21T00:22:44;13.10;;;7.80;;
38113;SDS011;23926;53.222;6.354;2022-08-21T00:25:10;13.25;;;7.63;;
38113;SDS011;23926;53.222;6.354;2022-08-21T00:27:36;11.27;;;8.07;;
38113;SDS011;23926;53.222;6.354;2022-08-21T00:30:04;14.77;;;8.30;;
38113;SDS011;23926;53.222;6.354;2022-08-21T00:32:31;13.63;;;7.55;;
38113;SDS011;23926;53.222;6.354;2022-08-21T00:34:57;12.93;;;8.05;;
38113;SDS011;23926;53.222;6.354;2022-08-21T00:37:23;13.95;;;7.80;;
38113;SDS011;23926;53.222;6.354;2022-08-21T00:39:48;11.82;;;7.88;;
38113;SDS011;23926;53.222;6.354;2022-08-21T00:42:14;16.15;;;7.93;;
38113;SDS011;23926;53.222;6.354;2022-08-21T00:44:43;13.50;;;7.78;;
38113;SDS011;23926;53.222;6.354;2022-08-21T00:47:13;17.58;;;9.68;;
38113;SDS011;23926;53.222;6.354;2022-08-21T00:49:39;14.23;;;9.18;;
38113;SDS011;23926;53.222;6.354;2022-08-21T00:52:05;12.93;;;8.65;;
38113;SDS011;23926;53.222;6.354;2022-08-21T00:54:34;11.43;;;8.07;;
38113;SDS011;23926;53.222;6.354;2022-08-21T00:57:04;14.70;;;8.43;;
38113;SDS011;23926;53.222;6.354;2022-08-21T00:59:36;11.23;;;8.38;;
38113;SDS011;23926;53.222;6.354;2022-08-21T01:02:04;13.20;;;8.50;;
38113;SDS011;23926;53.222;6.354;2022-08-21T01:04:32;12.00;;;9.00;;
38113;SDS011;23926;53.222;6.354;2022-08-21T01:06:57;16.38;;;8.60;;
38113;SDS011;23926;53.222;6.354;2022-08-21T01:09:22;12.95;;;7.30;;
38113;SDS011;23926;53.222;6.354;2022-08-21T01:11:48;10.98;;;7.78;;
38113;SDS011;23926;53.222;6.354;2022-08-21T01:14:14;12.15;;;8.15;;
38113;SDS011;23926;53.222;6.354;2022-08-21T01:16:41;11.07;;;8.40;;
38113;SDS011;23926;53.222;6.354;2022-08-21T01:19:11;15.00;;;9.48;;
38113;SDS011;23926;53.222;6.354;2022-08-21T01:21:37;15.52;;;8.38;;
38113;SDS011;23926;53.222;6.354;2022-08-21T01:24:03;15.63;;;9.73;;
38113;SDS011;23926;53.222;6.354;2022-08-21T01:26:30;14.27;;;8.82;;
38113;SDS011;23926;53.222;6.354;2022-08-21T01:29:05;12.52;;;9.02;;
38113;SDS011;23926;53.222;6.354;2022-08-21T01:31:37;10.68;;;8.85;;
38113;SDS011;23926;53.222;6.354;2022-08-21T01:34:03;13.00;;;8.27;;
38113;SDS011;23926;53.222;6.354;2022-08-21T01:36:29;13.90;;;8.45;;
38113;SDS011;23926;53.222;6.354;2022-08-21T01:38:55;16.42;;;9.43;;
38113;SDS011;23926;53.222;6.354;2022-08-21T01:41:20;13.27;;;8.02;;
38113;SDS011;23926;53.222;6.354;2022-08-21T01:43:46;11.88;;;8.20;;
38113;SDS011;23926;53.222;6.354;2022-08-21T01:46:12;18.05;;;9.27;;
38113;SDS011;23926;53.222;6.354;2022-08-21T01:48:38;13.10;;;8.27;;
38113;SDS011;23926;53.222;6.354;2022-08-21T01:51:04;15.77;;;9.43;;
38113;SDS011;23926;53.222;6.354;2022-08-21T01:53:30;19.15;;;9.07;;
38113;SDS011;23926;53.222;6.354;2022-08-21T01:55:55;17.30;;;9.23;;
38113;SDS011;23926;53.222;6.354;2022-08-21T01:58:21;14.50;;;9.55;;
38113;SDS011;23926;53.222;6.354;2022-08-21T02:00:47;11.07;;;8.75;;
38113;SDS011;23926;53.222;6.354;2022-08-21T02:03:12;11.82;;;8.90;;
38113;SDS011;23926;53.222;6.354;2022-08-21T02:05:37;10.13;;;9.05;;
38113;SDS011;23926;53.222;6.354;2022-08-21T02:08:03;11.00;;;9.30;;
38113;SDS011;23926;53.222;6.354;2022-08-21T02:10:31;12.20;;;8.15;;
38113;SDS011;23926;53.222;6.354;2022-08-21T02:12:57;8.77;;;7.72;;
38113;SDS011;23926;53.222;6.354;2022-08-21T02:15:24;10.13;;;7.10;;
38113;SDS011;23926;53.222;6.354;2022-08-21T02:17:51;7.07;;;5.88;;
38113;SDS011;23926;53.222;6.354;2022-08-21T02:20:21;9.85;;;5.70;;
38113;SDS011;23926;53.222;6.354;2022-08-21T02:22:46;6.53;;;5.10;;
38113;SDS011;23926;53.222;6.354;2022-08-21T02:25:12;6.75;;;5.38;;
38113;SDS011;23926;53.222;6.354;2022-08-21T02:27:39;5.18;;;4.75;;
38113;SDS011;23926;53.222;6.354;2022-08-21T02:30:06;6.50;;;5.85;;
38113;SDS011;23926;53.222;6.354;2022-08-21T02:32:32;9.57;;;6.20;;
38113;SDS011;23926;53.222;6.354;2022-08-21T02:34:58;6.05;;;5.45;;
38113;SDS011;23926;53.222;6.354;2022-08-21T02:37:23;10.95;;;6.38;;
38113;SDS011;23926;53.222;6.354;2022-08-21T02:39:49;10.77;;;7.38;;
38113;SDS011;23926;53.222;6.354;2022-08-21T02:42:14;9.55;;;7.07;;
38113;SDS011;23926;53.222;6.354;2022-08-21T02:44:40;10.15;;;7.47;;
38113;SDS011;23926;53.222;6.354;2022-08-21T02:47:06;9.52;;;7.35;;
38113;SDS011;23926;53.222;6.354;2022-08-21T02:49:32;8.23;;;6.55;;
38113;SDS011;23926;53.222;6.354;2022-08-21T02:51:57;8.15;;;7.00;;
38113;SDS011;23926;53.222;6.354;2022-08-21T02:54:22;9.50;;;7.03;;
38113;SDS011;23926;53.222;6.354;2022-08-21T02:56:48;11.43;;;6.97;;
38113;SDS011;23926;53.222;6.354;2022-08-21T02:59:13;13.60;;;8.60;;
38113;SDS011;23926;53.222;6.354;2022-08-21T03:01:38;12.15;;;8.88;;
38113;SDS011;23926;53.222;6.354;2022-08-21T03:04:04;13.60;;;9.60;;
38113;SDS011;23926;53.222;6.354;2022-08-21T03:06:29;21.15;;;10.88;;
38113;SDS011;23926;53.222;6.354;2022-08-21T03:08:55;19.63;;;11.10;;
38113;SDS011;23926;53.222;6.354;2022-08-21T03:11:20;23.02;;;13.40;;
38113;SDS011;23926;53.222;6.354;2022-08-21T03:13:45;15.30;;;10.35;;
38113;SDS011;23926;53.222;6.354;2022-08-21T03:16:11;19.83;;;12.45;;
38113;SDS011;23926;53.222;6.354;2022-08-21T03:18:37;18.23;;;10.15;;
38113;SDS011;23926;53.222;6.354;2022-08-21T03:21:03;14.02;;;7.65;;
38113;SDS011;23926;53.222;6.354;2022-08-21T03:23:28;18.13;;;11.77;;
38113;SDS011;23926;53.222;6.354;2022-08-21T03:25:55;14.30;;;8.25;;
38113;SDS011;23926;53.222;6.354;2022-08-21T03:28:23;18.58;;;11.00;;
38113;SDS011;23926;53.222;6.354;2022-08-21T03:30:49;15.38;;;10.13;;
38113;SDS011;23926;53.222;6.354;2022-08-21T03:33:17;12.90;;;8.30;;
38113;SDS011;23926;53.222;6.354;2022-08-21T03:35:43;13.70;;;8.90;;
38113;SDS011;23926;53.222;6.354;2022-08-21T03:38:12;13.13;;;9.23;;
38113;SDS011;23926;53.222;6.354;2022-08-21T03:40:41;12.68;;;9.05;;
38113;SDS011;23926;53.222;6.354;2022-08-21T03:43:07;13.32;;;8.27;;
38113;SDS011;23926;53.222;6.354;2022-08-21T03:45:34;13.85;;;9.60;;
38113;SDS011;23926;53.222;6.354;2022-08-21T03:48:01;17.48;;;11.57;;
38113;SDS011;23926;53.222;6.354;2022-08-21T03:50:30;13.23;;;9.38;;
38113;SDS011;23926;53.222;6.354;2022-08-21T03:52:57;16.67;;;10.10;;
38113;SDS011;23926;53.222;6.354;2022-08-21T03:55:24;14.48;;;9.38;;
38113;SDS011;23926;53.222;6.354;2022-08-21T03:57:51;13.85;;;9.13;;
38113;SDS011;23926;53.222;6.354;2022-08-21T04:00:17;11.45;;;6.80;;
38113;SDS011;23926;53.222;6.354;2022-08-21T04:02:44;11.60;;;5.72;;
38113;SDS011;23926;53.222;6.354;2022-08-21T04:05:10;12.95;;;8.75;;
38113;SDS011;23926;53.222;6.354;2022-08-21T04:07:36;13.07;;;8.80;;
38113;SDS011;23926;53.222;6.354;2022-08-21T04:10:02;15.10;;;9.32;;
38113;SDS011;23926;53.222;6.354;2022-08-21T04:12:30;11.80;;;6.45;;
38113;SDS011;23926;53.222;6.354;2022-08-21T04:14:55;8.35;;;6.32;;
38113;SDS011;23926;53.222;6.354;2022-08-21T04:17:21;15.85;;;9.15;;
38113;SDS011;23926;53.222;6.354;2022-08-21T04:19:46;10.93;;;7.28;;
38113;SDS011;23926;53.222;6.354;2022-08-21T04:22:12;16.35;;;8.90;;
38113;SDS011;23926;53.222;6.354;2022-08-21T04:24:37;16.25;;;9.52;;
38113;SDS011;23926;53.222;6.354;2022-08-21T04:27:03;15.80;;;9.88;;
38113;SDS011;23926;53.222;6.354;2022-08-21T04:29:28;12.57;;;8.07;;
38113;SDS011;23926;53.222;6.354;2022-08-21T04:31:53;15.50;;;9.02;;
38113;SDS011;23926;53.222;6.354;2022-08-21T04:34:19;12.38;;;8.18;;
38113;SDS011;23926;53.222;6.354;2022-08-21T04:36:44;15.82;;;10.40;;
38113;SDS011;23926;53.222;6.354;2022-08-21T04:39:10;11.10;;;8.35;;
38113;SDS011;23926;53.222;6.354;2022-08-21T04:41:35;15.55;;;9.52;;
38113;SDS011;23926;53.222;6.354;2022-08-21T04:44:01;16.27;;;8.73;;
38113;SDS011;23926;53.222;6.354;2022-08-21T04:46:28;14.48;;;8.82;;
38113;SDS011;23926;53.222;6.354;2022-08-21T04:48:53;12.75;;;8.27;;
38113;SDS011;23926;53.222;6.354;2022-08-21T04:51:22;9.32;;;6.35;;
38113;SDS011;23926;53.222;6.354;2022-08-21T04:53:52;16.45;;;8.80;;
38113;SDS011;23926;53.222;6.354;2022-08-21T04:56:31;14.45;;;9.13;;
38113;SDS011;23926;53.222;6.354;2022-08-21T04:59:01;12.77;;;7.53;;
38113;SDS011;23926;53.222;6.354;2022-08-21T05:01:30;11.90;;;7.70;;
38113;SDS011;23926;53.222;6.354;2022-08-21T05:03:59;10.68;;;6.43;;
38113;SDS011;23926;53.222;6.354;2022-08-21T05:06:28;15.82;;;8.18;;
38113;SDS011;23926;53.222;6.354;2022-08-21T05:08:56;9.07;;;7.03;;
38113;SDS011;23926;53.222;6.354;2022-08-21T05:11:22;10.02;;;7.05;;
38113;SDS011;23926;53.222;6.354;2022-08-21T05:13:48;10.77;;;6.45;;
38113;SDS011;23926;53.222;6.354;2022-08-21T05:16:14;16.05;;;9.65;;
38113;SDS011;23926;53.222;6.354;2022-08-21T05:18:40;15.55;;;8.43;;
38113;SDS011;23926;53.222;6.354;2022-08-21T05:21:06;9.85;;;6.15;;
38113;SDS011;23926;53.222;6.354;2022-08-21T05:23:31;10.88;;;7.03;;
38113;SDS011;23926;53.222;6.354;2022-08-21T05:25:57;12.48;;;7.07;;
38113;SDS011;23926;53.222;6.354;2022-08-21T05:28:23;11.52;;;7.13;;
38113;SDS011;23926;53.222;6.354;2022-08-21T05:30:48;16.05;;;7.68;;
38113;SDS011;23926;53.222;6.354;2022-08-21T05:33:14;17.40;;;8.30;;
38113;SDS011;23926;53.222;6.354;2022-08-21T05:35:39;10.95;;;5.60;;
38113;SDS011;23926;53.222;6.354;2022-08-21T05:38:05;15.00;;;8.45;;
38113;SDS011;23926;53.222;6.354;2022-08-21T05:40:31;12.18;;;7.15;;
38113;SDS011;23926;53.222;6.354;2022-08-21T05:42:57;15.57;;;7.22;;
38113;SDS011;23926;53.222;6.354;2022-08-21T05:45:24;9.90;;;5.85;;
38113;SDS011;23926;53.222;6.354;2022-08-21T05:47:52;10.35;;;7.43;;
38113;SDS011;23926;53.222;6.354;2022-08-21T05:50:17;9.38;;;5.97;;
38113;SDS011;23926;53.222;6.354;2022-08-21T05:52:42;14.32;;;7.75;;
38113;SDS011;23926;53.222;6.354;2022-08-21T05:55:08;8.00;;;6.00;;
38113;SDS011;23926;53.222;6.354;2022-08-21T05:57:33;12.15;;;6.40;;
38113;SDS011;23926;53.222;6.354;2022-08-21T05:59:59;15.88;;;7.85;;
38113;SDS011;23926;53.222;6.354;2022-08-21T06:02:24;9.65;;;7.28;;
38113;SDS011;23926;53.222;6.354;2022-08-21T06:04:49;12.70;;;7.40;;
38113;SDS011;23926;53.222;6.354;2022-08-21T06:07:15;9.55;;;6.35;;
38113;SDS011;23926;53.222;6.354;2022-08-21T06:09:40;15.95;;;7.35;;
38113;SDS011;23926;53.222;6.354;2022-08-21T06:12:10;14.25;;;8.80;;
38113;SDS011;23926;53.222;6.354;2022-08-21T06:14:38;13.20;;;6.30;;
38113;SDS011;23926;53.222;6.354;2022-08-21T06:17:05;9.43;;;6.53;;
38113;SDS011;23926;53.222;6.354;2022-08-21T06:19:32;17.50;;;8.65;;
38113;SDS011;23926;53.222;6.354;2022-08-21T06:21:57;10.23;;;6.55;;
38113;SDS011;23926;53.222;6.354;2022-08-21T06:24:23;14.63;;;8.13;;
38113;SDS011;23926;53.222;6.354;2022-08-21T06:26:49;12.63;;;5.75;;
38113;SDS011;23926;53.222;6.354;2022-08-21T06:29:15;8.90;;;5.88;;
38113;SDS011;23926;53.222;6.354;2022-08-21T06:31:44;10.50;;;6.90;;
38113;SDS011;23926;53.222;6.354;2022-08-21T06:34:10;12.13;;;7.28;;
38113;SDS011;23926;53.222;6.354;2022-08-21T06:36:36;17.92;;;7.85;;
38113;SDS011;23926;53.222;6.354;2022-08-21T06:39:02;10.70;;;6.03;;
38113;SDS011;23926;53.222;6.354;2022-08-21T06:41:28;10.65;;;6.50;;
38113;SDS011;23926;53.222;6.354;2022-08-21T06:43:54;12.90;;;6.70;;
38113;SDS011;23926;53.222;6.354;2022-08-21T06:46:20;15.35;;;8.20;;
38113;SDS011;23926;53.222;6.354;2022-08-21T06:48:45;11.90;;;6.38;;
38113;SDS011;23926;53.222;6.354;2022-08-21T06:51:11;10.35;;;7.35;;
38113;SDS011;23926;53.222;6.354;2022-08-21T06:53:36;14.98;;;7.25;;
38113;SDS011;23926;53.222;6.354;2022-08-21T06:56:02;13.40;;;7.60;;
38113;SDS011;23926;53.222;6.354;2022-08-21T06:58:28;23.27;;;7.20;;
38113;SDS011;23926;53.222;6.354;2022-08-21T07:00:54;16.50;;;7.25;;
38113;SDS011;23926;53.222;6.354;2022-08-21T07:03:27;14.52;;;6.88;;
38113;SDS011;23926;53.222;6.354;2022-08-21T07:05:55;16.90;;;6.13;;
38113;SDS011;23926;53.222;6.354;2022-08-21T07:08:23;12.38;;;5.30;;
38113;SDS011;23926;53.222;6.354;2022-08-21T07:10:50;10.80;;;4.35;;
38113;SDS011;23926;53.222;6.354;2022-08-21T07:13:17;7.13;;;4.03;;
38113;SDS011;23926;53.222;6.354;2022-08-21T07:15:43;10.88;;;4.95;;
38113;SDS011;23926;53.222;6.354;2022-08-21T07:18:09;10.57;;;4.22;;
38113;SDS011;23926;53.222;6.354;2022-08-21T07:20:35;11.15;;;4.15;;
38113;SDS011;23926;53.222;6.354;2022-08-21T07:23:03;8.35;;;4.20;;
38113;SDS011;23926;53.222;6.354;2022-08-21T07:25:31;12.13;;;4.68;;
38113;SDS011;23926;53.222;6.354;2022-08-21T07:27:56;8.55;;;3.70;;
38113;SDS011;23926;53.222;6.354;2022-08-21T07:30:22;13.77;;;5.25;;
38113;SDS011;23926;53.222;6.354;2022-08-21T07:32:49;14.00;;;4.50;;
38113;SDS011;23926;53.222;6.354;2022-08-21T07:35:15;12.05;;;4.28;;
38113;SDS011;23926;53.222;6.354;2022-08-21T07:37:42;8.55;;;3.85;;
38113;SDS011;23926;53.222;6.354;2022-08-21T07:40:08;12.35;;;4.22;;
38113;SDS011;23926;53.222;6.354;2022-08-21T07:42:33;11.65;;;4.10;;
38113;SDS011;23926;53.222;6.354;2022-08-21T07:44:58;12.35;;;4.40;;
38113;SDS011;23926;53.222;6.354;2022-08-21T07:47:24;13.05;;;4.22;;
38113;SDS011;23926;53.222;6.354;2022-08-21T07:49:49;10.70;;;3.60;;
38113;SDS011;23926;53.222;6.354;2022-08-21T07:52:15;15.68;;;4.43;;
38113;SDS011;23926;53.222;6.354;2022-08-21T07:54:40;12.50;;;4.13;;
38113;SDS011;23926;53.222;6.354;2022-08-21T07:57:06;9.10;;;3.97;;
38113;SDS011;23926;53.222;6.354;2022-08-21T07:59:31;10.45;;;3.88;;
38113;SDS011;23926;53.222;6.354;2022-08-21T08:01:56;8.63;;;3.42;;
38113;SDS011;23926;53.222;6.354;2022-08-21T08:04:22;10.05;;;3.50;;
38113;SDS011;23926;53.222;6.354;2022-08-21T08:06:47;8.43;;;3.42;;
38113;SDS011;23926;53.222;6.354;2022-08-21T08:09:13;12.75;;;3.80;;
38113;SDS011;23926;53.222;6.354;2022-08-21T08:11:38;16.02;;;4.35;;
38113;SDS011;23926;53.222;6.354;2022-08-21T08:14:08;7.95;;;3.20;;
38113;SDS011;23926;53.222;6.354;2022-08-21T08:16:33;9.73;;;3.35;;
38113;SDS011;23926;53.222;6.354;2022-08-21T08:18:58;13.18;;;4.18;;
38113;SDS011;23926;53.222;6.354;2022-08-21T08:21:24;15.60;;;3.67;;
38113;SDS011;23926;53.222;6.354;2022-08-21T08:23:49;11.85;;;3.88;;
38113;SDS011;23926;53.222;6.354;2022-08-21T08:26:15;7.22;;;3.33;;
38113;SDS011;23926;53.222;6.354;2022-08-21T08:28:40;13.52;;;4.60;;
38113;SDS011;23926;53.222;6.354;2022-08-21T08:31:06;9.43;;;3.65;;
38113;SDS011;23926;53.222;6.354;2022-08-21T08:33:32;12.23;;;3.60;;
38113;SDS011;23926;53.222;6.354;2022-08-21T08:35:57;14.90;;;4.50;;
38113;SDS011;23926;53.222;6.354;2022-08-21T08:38:24;11.98;;;4.00;;
38113;SDS011;23926;53.222;6.354;2022-08-21T08:43:19;10.23;;;3.65;;
38113;SDS011;23926;53.222;6.354;2022-08-21T08:45:46;11.15;;;4.28;;
38113;SDS011;23926;53.222;6.354;2022-08-21T08:48:20;11.90;;;4.35;;
38113;SDS011;23926;53.222;6.354;2022-08-21T08:51:16;20.55;;;5.53;;
38113;SDS011;23926;53.222;6.354;2022-08-21T08:53:58;12.02;;;3.92;;
38113;SDS011;23926;53.222;6.354;2022-08-21T08:56:28;12.80;;;4.18;;
38113;SDS011;23926;53.222;6.354;2022-08-21T08:58:58;11.73;;;4.07;;
38113;SDS011;23926;53.222;6.354;2022-08-21T09:01:28;16.73;;;4.72;;
38113;SDS011;23926;53.222;6.354;2022-08-21T09:03:53;16.63;;;4.32;;
38113;SDS011;23926;53.222;6.354;2022-08-21T09:06:23;14.98;;;4.88;;
38113;SDS011;23926;53.222;6.354;2022-08-21T09:09:41;12.50;;;4.35;;
38113;SDS011;23926;53.222;6.354;2022-08-21T09:25:56;13.85;;;3.90;;
38113;SDS011;23926;53.222;6.354;2022-08-21T09:28:36;8.02;;;4.07;;
38113;SDS011;23926;53.222;6.354;2022-08-21T09:31:04;14.57;;;4.68;;
38113;SDS011;23926;53.222;6.354;2022-08-21T09:33:31;11.40;;;4.28;;
38113;SDS011;23926;53.222;6.354;2022-08-21T09:35:57;14.00;;;4.60;;
38113;SDS011;23926;53.222;6.354;2022-08-21T09:40:58;11.27;;;3.80;;
38113;SDS011;23926;53.222;6.354;2022-08-21T09:43:29;15.48;;;3.92;;
38113;SDS011;23926;53.222;6.354;2022-08-21T09:46:03;11.57;;;3.50;;
38113;SDS011;23926;53.222;6.354;2022-08-21T09:48:43;10.73;;;3.20;;
38113;SDS011;23926;53.222;6.354;2022-08-21T09:51:14;8.90;;;3.15;;
38113;SDS011;23926;53.222;6.354;2022-08-21T09:53:44;9.80;;;3.47;;
38113;SDS011;23926;53.222;6.354;2022-08-21T09:56:21;11.68;;;4.10;;
38113;SDS011;23926;53.222;6.354;2022-08-21T09:59:34;9.27;;;3.40;;
38113;SDS011;23926;53.222;6.354;2022-08-21T10:02:01;12.02;;;3.65;;
38113;SDS011;23926;53.222;6.354;2022-08-21T10:04:41;6.82;;;2.80;;
38113;SDS011;23926;53.222;6.354;2022-08-21T10:07:19;8.38;;;2.88;;
38113;SDS011;23926;53.222;6.354;2022-08-21T10:09:57;13.07;;;3.20;;
38113;SDS011;23926;53.222;6.354;2022-08-21T10:12:26;10.48;;;3.28;;
38113;SDS011;23926;53.222;6.354;2022-08-21T10:17:36;11.68;;;2.97;;
38113;SDS011;23926;53.222;6.354;2022-08-21T10:20:27;8.07;;;2.50;;
38113;SDS011;23926;53.222;6.354;2022-08-21T10:31:57;14.27;;;3.20;;
38113;SDS011;23926;53.222;6.354;2022-08-21T10:34:43;9.73;;;2.72;;
38113;SDS011;23926;53.222;6.354;2022-08-21T10:40:45;8.35;;;3.08;;
38113;SDS011;23926;53.222;6.354;2022-08-21T10:46:15;12.20;;;3.25;;
38113;SDS011;23926;53.222;6.354;2022-08-21T10:57:02;8.68;;;2.67;;
38113;SDS011;23926;53.222;6.354;2022-08-21T10:59:46;7.97;;;3.08;;
38113;SDS011;23926;53.222;6.354;2022-08-21T11:02:17;6.20;;;2.88;;
38113;SDS011;23926;53.222;6.354;2022-08-21T11:05:02;6.75;;;2.55;;
38113;SDS011;23926;53.222;6.354;2022-08-21T11:07:39;13.52;;;3.90;;
38113;SDS011;23926;53.222;6.354;2022-08-21T11:10:16;9.60;;;3.13;;
38113;SDS011;23926;53.222;6.354;2022-08-21T11:12:54;8.95;;;2.92;;
38113;SDS011;23926;53.222;6.354;2022-08-21T11:15:38;9.32;;;3.30;;
38113;SDS011;23926;53.222;6.354;2022-08-21T11:18:30;6.88;;;2.75;;
38113;SDS011;23926;53.222;6.354;2022-08-21T11:21:14;6.68;;;3.03;;
38113;SDS011;23926;53.222;6.354;2022-08-21T11:24:03;13.38;;;2.80;;
38113;SDS011;23926;53.222;6.354;2022-08-21T11:26:47;8.55;;;2.88;;
38113;SDS011;23926;53.222;6.354;2022-08-21T11:29:24;7.85;;;2.90;;
38113;SDS011;23926;53.222;6.354;2022-08-21T11:32:01;8.93;;;2.92;;
38113;SDS011;23926;53.222;6.354;2022-08-21T11:37:30;14.73;;;2.90;;
38113;SDS011;23926;53.222;6.354;2022-08-21T11:43:08;7.10;;;2.47;;
38113;SDS011;23926;53.222;6.354;2022-08-21T11:51:23;8.30;;;2.53;;
38113;SDS011;23926;53.222;6.354;2022-08-21T11:54:08;5.25;;;2.33;;
38113;SDS011;23926;53.222;6.354;2022-08-21T11:56:53;7.97;;;2.13;;
38113;SDS011;23926;53.222;6.354;2022-08-21T11:59:36;5.15;;;2.05;;
38113;SDS011;23926;53.222;6.354;2022-08-21T12:02:34;5.65;;;2.28;;
38113;SDS011;23926;53.222;6.354;2022-08-21T12:05:22;6.20;;;2.10;;
38113;SDS011;23926;53.222;6.354;2022-08-21T12:08:12;6.30;;;2.40;;
38113;SDS011;23926;53.222;6.354;2022-08-21T12:10:41;7.00;;;2.50;;
38113;SDS011;23926;53.222;6.354;2022-08-21T12:13:22;6.57;;;2.17;;
38113;SDS011;23926;53.222;6.354;2022-08-21T12:16:04;7.35;;;2.03;;
38113;SDS011;23926;53.222;6.354;2022-08-21T12:18:40;6.13;;;2.20;;
38113;SDS011;23926;53.222;6.354;2022-08-21T12:21:25;7.68;;;2.25;;
38113;SDS011;23926;53.222;6.354;2022-08-21T12:24:00;7.50;;;1.83;;
38113;SDS011;23926;53.222;6.354;2022-08-21T12:34:35;5.25;;;2.42;;
38113;SDS011;23926;53.222;6.354;2022-08-21T12:37:14;8.00;;;1.90;;
38113;SDS011;23926;53.222;6.354;2022-08-21T12:39:46;9.38;;;2.55;;
38113;SDS011;23926;53.222;6.354;2022-08-21T12:42:19;6.15;;;2.03;;
38113;SDS011;23926;53.222;6.354;2022-08-21T12:44:53;7.72;;;2.10;;
38113;SDS011;23926;53.222;6.354;2022-08-21T12:47:44;6.03;;;1.90;;
38113;SDS011;23926;53.222;6.354;2022-08-21T12:50:19;7.78;;;2.33;;
38113;SDS011;23926;53.222;6.354;2022-08-21T12:52:51;5.45;;;2.20;;
38113;SDS011;23926;53.222;6.354;2022-08-21T12:55:26;4.38;;;1.52;;
38113;SDS011;23926;53.222;6.354;2022-08-21T12:57:54;6.90;;;1.73;;
38113;SDS011;23926;53.222;6.354;2022-08-21T13:00:21;6.07;;;2.30;;
38113;SDS011;23926;53.222;6.354;2022-08-21T13:02:49;3.30;;;1.88;;
38113;SDS011;23926;53.222;6.354;2022-08-21T13:05:30;4.53;;;1.80;;
38113;SDS011;23926;53.222;6.354;2022-08-21T13:07:58;5.68;;;2.00;;
38113;SDS011;23926;53.222;6.354;2022-08-21T13:10:29;9.63;;;2.30;;
38113;SDS011;23926;53.222;6.354;2022-08-21T13:12:57;5.80;;;2.50;;
38113;SDS011;23926;53.222;6.354;2022-08-21T13:15:29;6.65;;;2.35;;
38113;SDS011;23926;53.222;6.354;2022-08-21T13:17:57;9.02;;;2.47;;
38113;SDS011;23926;53.222;6.354;2022-08-21T13:20:33;5.43;;;1.88;;
38113;SDS011;23926;53.222;6.354;2022-08-21T13:23:01;5.80;;;2.72;;
38113;SDS011;23926;53.222;6.354;2022-08-21T13:25:30;6.70;;;2.70;;
38113;SDS011;23926;53.222;6.354;2022-08-21T13:28:09;6.28;;;2.30;;
38113;SDS011;23926;53.222;6.354;2022-08-21T13:30:46;7.93;;;2.13;;
38113;SDS011;23926;53.222;6.354;2022-08-21T13:33:15;7.53;;;2.42;;
38113;SDS011;23926;53.222;6.354;2022-08-21T13:38:15;6.72;;;2.13;;
38113;SDS011;23926;53.222;6.354;2022-08-21T13:40:45;6.80;;;2.10;;
38113;SDS011;23926;53.222;6.354;2022-08-21T13:43:14;5.45;;;1.85;;
38113;SDS011;23926;53.222;6.354;2022-08-21T13:45:44;5.28;;;2.30;;
38113;SDS011;23926;53.222;6.354;2022-08-21T13:48:13;5.97;;;2.15;;
38113;SDS011;23926;53.222;6.354;2022-08-21T13:50:39;8.50;;;2.00;;
38113;SDS011;23926;53.222;6.354;2022-08-21T13:53:07;5.95;;;2.38;;
38113;SDS011;23926;53.222;6.354;2022-08-21T13:55:44;6.03;;;1.90;;
38113;SDS011;23926;53.222;6.354;2022-08-21T13:58:10;8.07;;;2.35;;
38113;SDS011;23926;53.222;6.354;2022-08-21T14:00:47;6.53;;;2.17;;
38113;SDS011;23926;53.222;6.354;2022-08-21T14:03:25;7.10;;;2.25;;
38113;SDS011;23926;53.222;6.354;2022-08-21T14:05:59;9.80;;;2.15;;
38113;SDS011;23926;53.222;6.354;2022-08-21T14:08:27;8.70;;;2.60;;
38113;SDS011;23926;53.222;6.354;2022-08-21T14:10:59;6.40;;;2.45;;
38113;SDS011;23926;53.222;6.354;2022-08-21T14:15:57;5.75;;;2.20;;
38113;SDS011;23926;53.222;6.354;2022-08-21T14:18:24;6.25;;;2.53;;
38113;SDS011;23926;53.222;6.354;2022-08-21T14:20:51;5.05;;;1.95;;
38113;SDS011;23926;53.222;6.354;2022-08-21T14:23:24;5.63;;;2.35;;
38113;SDS011;23926;53.222;6.354;2022-08-21T14:28:27;6.40;;;2.40;;
38113;SDS011;23926;53.222;6.354;2022-08-21T14:31:17;9.90;;;2.08;;
38113;SDS011;23926;53.222;6.354;2022-08-21T14:33:45;11.00;;;2.22;;
38113;SDS011;23926;53.222;6.354;2022-08-21T14:36:11;7.40;;;2.70;;
38113;SDS011;23926;53.222;6.354;2022-08-21T14:38:37;5.15;;;2.20;;
38113;SDS011;23926;53.222;6.354;2022-08-21T14:41:08;4.03;;;1.90;;
38113;SDS011;23926;53.222;6.354;2022-08-21T14:43:40;6.18;;;2.17;;
38113;SDS011;23926;53.222;6.354;2022-08-21T14:46:06;8.50;;;2.03;;
38113;SDS011;23926;53.222;6.354;2022-08-21T14:48:32;5.13;;;2.15;;
38113;SDS011;23926;53.222;6.354;2022-08-21T14:50:57;4.78;;;2.50;;
38113;SDS011;23926;53.222;6.354;2022-08-21T14:53:23;5.32;;;2.20;;
38113;SDS011;23926;53.222;6.354;2022-08-21T14:55:49;9.35;;;2.55;;
38113;SDS011;23926;53.222;6.354;2022-08-21T14:58:29;7.45;;;2.55;;
38113;SDS011;23926;53.222;6.354;2022-08-21T15:00:56;7.05;;;2.65;;
38113;SDS011;23926;53.222;6.354;2022-08-21T15:03:23;4.47;;;2.28;;
38113;SDS011;23926;53.222;6.354;2022-08-21T15:05:49;7.28;;;2.40;;
38113;SDS011;23926;53.222;6.354;2022-08-21T15:08:16;8.05;;;2.40;;
38113;SDS011;23926;53.222;6.354;2022-08-21T15:10:42;6.50;;;2.00;;
38113;SDS011;23926;53.222;6.354;2022-08-21T15:13:08;9.85;;;2.22;;
38113;SDS011;23926;53.222;6.354;2022-08-21T15:15:34;6.65;;;2.25;;
38113;SDS011;23926;53.222;6.354;2022-08-21T15:18:04;8.85;;;2.00;;
38113;SDS011;23926;53.222;6.354;2022-08-21T15:20:32;8.25;;;2.60;;
38113;SDS011;23926;53.222;6.354;2022-08-21T15:22:58;5.45;;;2.00;;
38113;SDS011;23926;53.222;6.354;2022-08-21T15:25:24;9.32;;;2.08;;
38113;SDS011;23926;53.222;6.354;2022-08-21T15:27:49;5.90;;;2.20;;
38113;SDS011;23926;53.222;6.354;2022-08-21T15:30:15;7.95;;;2.50;;
38113;SDS011;23926;53.222;6.354;2022-08-21T15:32:40;5.40;;;2.33;;
38113;SDS011;23926;53.222;6.354;2022-08-21T15:35:07;8.43;;;2.85;;
38113;SDS011;23926;53.222;6.354;2022-08-21T15:37:33;8.38;;;2.30;;
38113;SDS011;23926;53.222;6.354;2022-08-21T15:39:58;8.77;;;2.80;;
38113;SDS011;23926;53.222;6.354;2022-08-21T15:42:24;7.43;;;2.60;;
38113;SDS011;23926;53.222;6.354;2022-08-21T15:44:54;8.70;;;2.63;;
38113;SDS011;23926;53.222;6.354;2022-08-21T15:47:22;11.02;;;2.47;;
38113;SDS011;23926;53.222;6.354;2022-08-21T15:49:51;10.30;;;2.30;;
38113;SDS011;23926;53.222;6.354;2022-08-21T15:52:17;7.47;;;2.20;;
38113;SDS011;23926;53.222;6.354;2022-08-21T15:54:45;6.57;;;2.35;;
38113;SDS011;23926;53.222;6.354;2022-08-21T15:57:12;6.30;;;2.28;;
38113;SDS011;23926;53.222;6.354;2022-08-21T15:59:40;6.80;;;2.10;;
38113;SDS011;23926;53.222;6.354;2022-08-21T16:02:13;8.15;;;2.25;;
38113;SDS011;23926;53.222;6.354;2022-08-21T16:04:42;10.98;;;2.38;;